createdAt,value
2019-05-22T00:02:29.891Z,3.52
2019-05-22T00:06:39.043Z,3.80
2019-05-22T00:10:46.875Z,2.58
2019-05-22T00:14:52.619Z,3.95
2019-05-22T00:18:59.063Z,2.40
2019-05-22T00:23:08.112Z,3.98
2019-05-22T00:27:15.126Z,2.80
2019-05-22T00:31:22.172Z,2.83
2019-05-22T00:35:29.123Z,2.90
2019-05-22T00:39:33.838Z,2.92
2019-05-22T00:43:44.666Z,2.92
2019-05-22T00:47:51.409Z,2.83
2019-05-22T00:52:07.208Z,1.70
2019-05-22T00:56:29.581Z,3.08
2019-05-22T01:00:39.742Z,2.20
2019-05-22T01:04:46.568Z,3.72
2019-05-22T01:08:53.267Z,2.33
2019-05-22T01:13:01.814Z,2.12
2019-05-22T01:17:07.951Z,2.70
2019-05-22T01:21:15.488Z,2.33
2019-05-22T01:25:24.416Z,2.85
2019-05-22T01:29:29.935Z,3.02
2019-05-22T01:33:42.379Z,3.02
2019-05-22T01:37:48.380Z,2.90
2019-05-22T01:41:56.329Z,3.55
2019-05-22T01:46:03.309Z,4.40
2019-05-22T01:50:10.944Z,5.42
2019-05-22T01:54:18.237Z,4.70
2019-05-22T01:58:24.610Z,5.95
2019-05-22T02:02:30.607Z,7.33
2019-05-22T02:06:39.285Z,6.00
2019-05-22T02:10:45.950Z,6.92
2019-05-22T02:14:52.905Z,10.43
2019-05-22T02:18:58.021Z,7.05
2019-05-22T02:23:03.112Z,11.73
2019-05-22T02:27:10.042Z,9.53
2019-05-22T02:31:23.239Z,9.45
2019-05-22T02:35:29.298Z,8.05
2019-05-22T02:39:36.068Z,9.83
2019-05-22T02:43:41.033Z,8.88
2019-05-22T02:47:46.922Z,9.93
2019-05-22T02:51:53.972Z,9.43
2019-05-22T02:55:58.869Z,17.45
2019-05-22T03:00:04.824Z,20.45
2019-05-22T03:04:11.432Z,16.45
2019-05-22T03:08:16.453Z,20.65
2019-05-22T03:12:24.453Z,29.32
2019-05-22T03:16:36.186Z,26.97
2019-05-22T03:20:41.941Z,29.92
2019-05-22T03:24:47.526Z,36.55
2019-05-22T03:28:53.380Z,34.35
2019-05-22T03:33:01.084Z,31.17
2019-05-22T03:37:07.101Z,30.15
2019-05-22T03:41:13.638Z,36.45
2019-05-22T03:45:21.344Z,27.10
2019-05-22T03:49:30.804Z,32.67
2019-05-22T03:53:36.650Z,32.88
2019-05-22T03:57:42.624Z,29.02
2019-05-22T04:01:47.891Z,28.47
2019-05-22T04:05:53.628Z,32.03
2019-05-22T04:09:59.362Z,27.95
2019-05-22T04:14:04.949Z,27.50
2019-05-22T04:18:14.437Z,28.45
2019-05-22T04:22:20.788Z,29.92
2019-05-22T04:26:26.681Z,27.82
2019-05-22T04:30:33.296Z,29.15
2019-05-22T04:34:38.821Z,34.43
2019-05-22T04:38:44.006Z,35.92
2019-05-22T04:42:50.705Z,43.13
2019-05-22T04:46:56.235Z,49.45
2019-05-22T04:51:24.008Z,42.00
2019-05-22T04:55:30.098Z,50.05
2019-05-22T04:59:36.487Z,52.80
2019-05-22T05:03:41.436Z,46.45
2019-05-22T05:07:46.906Z,45.85
2019-05-22T05:11:51.720Z,50.45
2019-05-22T05:15:57.111Z,47.17
2019-05-22T05:20:01.872Z,45.50
2019-05-22T05:24:07.656Z,40.88
2019-05-22T05:28:13.917Z,43.63
2019-05-22T05:32:19.295Z,42.50
2019-05-22T05:36:24.091Z,33.55
2019-05-22T05:40:33.719Z,35.35
2019-05-22T05:44:39.093Z,31.90
2019-05-22T05:48:44.786Z,35.58
2019-05-22T05:52:51.441Z,30.95
2019-05-22T05:56:59.521Z,35.38
2019-05-22T06:01:15.257Z,33.45
2019-05-22T06:05:21.316Z,48.15
2019-05-22T06:09:27.171Z,47.40
2019-05-22T06:13:32.765Z,52.13
2019-05-22T06:18:13.873Z,52.35
2019-05-22T06:22:19.937Z,60.30
2019-05-22T06:26:37.393Z,59.67
2019-05-22T06:30:46.240Z,61.65
2019-05-22T06:34:52.584Z,72.37
2019-05-22T06:39:13.730Z,61.50
2019-05-22T06:43:59.237Z,63.17
2019-05-22T06:48:04.428Z,65.72
2019-05-22T06:52:09.504Z,69.07
2019-05-22T06:56:14.311Z,66.50
2019-05-22T07:00:24.873Z,56.95
2019-05-22T07:04:29.757Z,63.85
2019-05-22T07:08:35.501Z,53.70
2019-05-22T07:12:42.531Z,58.48
2019-05-22T07:16:48.553Z,46.58
2019-05-22T07:20:56.831Z,43.87
2019-05-22T07:25:02.617Z,37.48
2019-05-22T07:29:11.073Z,47.70
2019-05-22T07:33:17.192Z,47.43
2019-05-22T07:37:23.544Z,46.13
2019-05-22T07:41:28.711Z,42.90
2019-05-22T07:45:35.074Z,45.90
2019-05-22T07:49:40.747Z,44.15
2019-05-22T07:53:47.074Z,39.05
2019-05-22T07:57:56.382Z,40.60
2019-05-22T08:02:02.163Z,35.85
2019-05-22T08:06:08.222Z,37.30
2019-05-22T08:10:15.669Z,40.70
2019-05-22T08:14:23.728Z,32.25
2019-05-22T08:18:30.545Z,38.50
2019-05-22T08:22:37.997Z,36.58
2019-05-22T08:26:53.752Z,39.98
2019-05-22T08:30:51.509Z,34.55
2019-05-22T08:34:56.594Z,34.90
2019-05-22T08:39:02.349Z,32.10
2019-05-22T08:43:08.478Z,31.82
2019-05-22T08:47:13.576Z,34.20
2019-05-22T08:51:19.844Z,37.42
2019-05-22T08:55:25.942Z,37.00
2019-05-22T08:59:30.742Z,36.30
2019-05-22T09:03:35.693Z,40.28
2019-05-22T09:07:41.145Z,30.97
2019-05-22T09:11:45.943Z,35.17
2019-05-22T09:15:51.817Z,33.65
2019-05-22T09:19:57.763Z,29.67
2019-05-22T09:24:04.656Z,29.95
2019-05-22T09:28:10.121Z,33.02
2019-05-22T09:32:15.328Z,29.90
2019-05-22T09:36:20.204Z,25.08
2019-05-22T09:40:25.645Z,26.02
2019-05-22T09:44:30.526Z,24.85
2019-05-22T09:48:36.609Z,24.82
2019-05-22T09:52:56.315Z,25.50
2019-05-22T09:56:49.996Z,26.17
2019-05-22T10:00:55.179Z,26.12
2019-05-22T10:04:59.974Z,30.50
2019-05-22T10:09:07.521Z,23.35
2019-05-22T10:13:13.230Z,27.85
2019-05-22T10:17:19.016Z,33.00
2019-05-22T10:21:26.886Z,36.20
2019-05-22T10:25:31.809Z,34.83
2019-05-22T10:29:37.061Z,33.78
2019-05-22T10:33:42.456Z,36.90
2019-05-22T10:37:48.101Z,32.55
2019-05-22T10:41:52.912Z,30.88
2019-05-22T10:45:58.110Z,30.30
2019-05-22T10:50:03.957Z,34.00
2019-05-22T10:54:09.034Z,34.05
2019-05-22T10:58:14.307Z,33.83
2019-05-22T11:02:19.908Z,34.18
2019-05-22T11:06:25.673Z,29.90
2019-05-22T11:10:30.843Z,33.60
2019-05-22T11:14:35.655Z,34.43
2019-05-22T11:18:41.110Z,35.85
2019-05-22T11:22:46.543Z,39.48
2019-05-22T11:26:51.706Z,33.73
2019-05-22T11:30:57.830Z,31.37
2019-05-22T11:35:03.108Z,28.67
2019-05-22T11:39:13.468Z,31.07
2019-05-22T11:43:18.538Z,29.32
2019-05-22T11:47:24.207Z,34.67
2019-05-22T11:51:28.925Z,35.55
2019-05-22T11:55:45.364Z,38.50
2019-05-22T11:59:41.376Z,35.17
2019-05-22T12:03:47.667Z,32.88
2019-05-22T12:07:52.552Z,33.08
2019-05-22T12:11:58.461Z,33.00
2019-05-22T12:16:05.399Z,32.53
2019-05-22T12:20:11.575Z,31.97
2019-05-22T12:24:26.930Z,33.15
2019-05-22T12:28:23.948Z,33.02
2019-05-22T12:32:30.684Z,33.98
2019-05-22T12:36:35.920Z,34.40
2019-05-22T12:40:41.577Z,30.95
2019-05-22T12:44:47.742Z,28.02
2019-05-22T12:48:54.491Z,29.07
2019-05-22T12:53:02.083Z,27.70
2019-05-22T12:57:08.048Z,27.98
2019-05-22T13:01:14.214Z,30.52
2019-05-22T13:05:19.101Z,30.70
2019-05-22T13:09:24.190Z,29.37
2019-05-22T13:13:30.114Z,29.70
2019-05-22T13:17:36.166Z,28.75
2019-05-22T13:21:42.320Z,26.25
2019-05-22T13:25:47.489Z,26.65
2019-05-22T13:29:54.175Z,30.08
2019-05-22T13:34:01.086Z,29.57
2019-05-22T13:38:07.057Z,24.67
2019-05-22T13:42:13.570Z,24.43
2019-05-22T13:46:18.788Z,24.72
2019-05-22T13:50:28.652Z,26.27
2019-05-22T13:54:32.773Z,27.22
2019-05-22T13:58:38.224Z,26.05
2019-05-22T14:02:43.395Z,29.23
2019-05-22T14:06:49.395Z,26.70
2019-05-22T14:10:55.696Z,26.23
2019-05-22T14:15:00.516Z,30.05
2019-05-22T14:19:05.860Z,29.12
2019-05-22T14:23:11.253Z,26.37
2019-05-22T14:27:16.144Z,31.45
2019-05-22T14:31:21.919Z,35.08
2019-05-22T14:35:45.016Z,31.15
2019-05-22T14:39:35.795Z,32.40
2019-05-22T14:43:40.532Z,34.23
2019-05-22T14:47:45.830Z,29.90
2019-05-22T14:51:51.799Z,30.20
2019-05-22T14:55:59.051Z,31.73
2019-05-22T15:00:04.651Z,26.10
2019-05-22T15:04:09.462Z,27.42
2019-05-22T15:08:14.660Z,29.27
2019-05-22T15:12:19.564Z,28.70
2019-05-22T15:16:24.944Z,27.65
2019-05-22T15:20:42.008Z,30.82
2019-05-22T15:24:46.896Z,28.17
2019-05-22T15:28:52.356Z,26.62
2019-05-22T15:32:58.132Z,27.42
2019-05-22T15:37:03.547Z,28.85
2019-05-22T15:41:11.355Z,23.12
2019-05-22T15:45:19.787Z,26.05
2019-05-22T15:49:25.773Z,22.60
2019-05-22T15:53:33.267Z,23.42
2019-05-22T15:57:40.305Z,21.73
2019-05-22T16:01:47.047Z,22.85
2019-05-22T16:05:53.974Z,23.00
2019-05-22T16:10:00.648Z,19.57
2019-05-22T16:14:08.209Z,21.10
2019-05-22T16:18:14.625Z,24.02
2019-05-22T16:22:19.405Z,22.35
2019-05-22T16:26:24.996Z,21.35
2019-05-22T16:30:30.661Z,19.92
2019-05-22T16:34:37.612Z,18.60
2019-05-22T16:38:44.005Z,17.25
2019-05-22T16:42:50.716Z,18.42
2019-05-22T16:46:58.008Z,18.35
2019-05-22T16:51:04.400Z,15.32
2019-05-22T16:55:12.694Z,15.75
2019-05-22T16:59:19.246Z,15.35
2019-05-22T17:03:26.007Z,15.32
2019-05-22T17:07:32.945Z,13.70
2019-05-22T17:11:38.596Z,13.05
2019-05-22T17:15:43.993Z,14.58
2019-05-22T17:19:50.698Z,11.20
2019-05-22T17:23:55.983Z,11.57
2019-05-22T17:28:01.572Z,10.55
2019-05-22T17:32:08.219Z,10.35
2019-05-22T17:36:14.836Z,9.75
2019-05-22T17:40:20.944Z,11.03
2019-05-22T17:44:27.203Z,10.63
2019-05-22T17:48:33.949Z,12.35
2019-05-22T17:52:38.975Z,11.43
2019-05-22T17:56:44.212Z,11.35
2019-05-22T18:00:49.728Z,12.98
2019-05-22T18:04:55.168Z,12.10
2019-05-22T18:09:00.037Z,11.88
2019-05-22T18:13:06.741Z,9.80
2019-05-22T18:17:12.510Z,9.63
2019-05-22T18:21:18.244Z,10.88
2019-05-22T18:25:23.132Z,10.25
2019-05-22T18:29:28.027Z,10.43
2019-05-22T18:33:33.334Z,9.95
2019-05-22T18:37:38.224Z,10.18
2019-05-22T18:41:44.356Z,7.90
2019-05-22T18:45:50.027Z,11.38
2019-05-22T18:49:54.892Z,11.25
2019-05-22T18:53:59.985Z,10.00
2019-05-22T18:58:04.949Z,10.25
2019-05-22T19:02:10.915Z,10.03
2019-05-22T19:06:29.325Z,10.82
2019-05-22T19:10:24.539Z,10.90
2019-05-22T19:14:29.336Z,8.98
2019-05-22T19:18:34.047Z,10.60
2019-05-22T19:22:39.997Z,10.82
2019-05-22T19:26:45.272Z,11.68
2019-05-22T19:30:51.564Z,11.95
2019-05-22T19:34:56.415Z,11.10
2019-05-22T19:39:01.839Z,10.38
2019-05-22T19:43:08.181Z,10.95
2019-05-22T19:47:14.265Z,11.53
2019-05-22T19:51:20.012Z,9.68
2019-05-22T19:55:27.652Z,12.33
2019-05-22T19:59:33.988Z,13.05
2019-05-22T20:03:39.205Z,11.28
2019-05-22T20:07:44.751Z,13.38
2019-05-22T20:11:49.672Z,13.03
2019-05-22T20:15:56.493Z,13.48
2019-05-22T20:20:02.269Z,11.43
2019-05-22T20:24:09.200Z,12.55
2019-05-22T20:28:15.246Z,14.10
2019-05-22T20:32:20.728Z,11.40
2019-05-22T20:36:25.427Z,12.55
2019-05-22T20:40:30.781Z,11.50
2019-05-22T20:44:35.957Z,15.25
2019-05-22T20:48:41.761Z,12.93
2019-05-22T20:52:47.449Z,13.43
2019-05-22T20:56:53.196Z,16.00
2019-05-22T21:00:58.501Z,16.95
2019-05-22T21:05:05.517Z,13.60
2019-05-22T21:09:11.435Z,13.78
2019-05-22T21:13:18.682Z,13.98
2019-05-22T21:17:25.340Z,14.30
2019-05-22T21:21:30.652Z,14.30
2019-05-22T21:25:35.476Z,16.52
2019-05-22T21:29:40.428Z,15.80
2019-05-22T21:33:46.056Z,14.65
2019-05-22T21:37:51.224Z,16.27
2019-05-22T21:41:56.724Z,18.87
2019-05-22T21:46:01.532Z,18.52
2019-05-22T21:50:08.123Z,16.37
2019-05-22T21:54:14.179Z,20.45
2019-05-22T21:58:19.645Z,18.77
2019-05-22T22:02:31.027Z,22.85
2019-05-22T22:06:36.377Z,21.87
2019-05-22T22:10:41.288Z,20.25
2019-05-22T22:14:47.799Z,23.73
2019-05-22T22:18:53.198Z,25.88
2019-05-22T22:22:57.995Z,22.40
2019-05-22T22:27:04.067Z,23.02
2019-05-22T22:31:12.051Z,23.80
2019-05-22T22:35:18.599Z,22.10
2019-05-22T22:39:25.447Z,24.37
2019-05-22T22:43:32.874Z,22.02
2019-05-22T22:47:41.951Z,23.02
2019-05-22T22:51:48.948Z,27.77
2019-05-22T22:55:55.438Z,23.32
2019-05-22T23:00:00.748Z,25.00
2019-05-22T23:04:08.980Z,21.35
2019-05-22T23:08:17.831Z,26.85
2019-05-22T23:12:22.623Z,21.20
2019-05-22T23:16:28.699Z,22.35
2019-05-22T23:20:34.020Z,23.98
2019-05-22T23:24:40.900Z,25.48
2019-05-22T23:28:45.784Z,26.95
2019-05-22T23:32:52.363Z,25.08
2019-05-22T23:36:58.750Z,26.27
2019-05-22T23:41:04.843Z,28.92
2019-05-22T23:45:14.905Z,26.62
2019-05-22T23:49:20.308Z,30.32
2019-05-22T23:53:27.055Z,26.50
2019-05-22T23:57:32.445Z,24.63
